Time;durP1;ratioP1;P1;durP2;ratioP2;P2;SDS_P1;SDS_P2;PMS_P1;PMS_P2;Temp;Humidity;BMP_temperature;BMP_pressure;BME280_temperature;BME280_humidity;BME280_pressure;Samples;Min_cycle;Max_cycle;Signal;HPM_P1;HPM_P2
2022/07/01 00:01:57;;;;;;;1.50;1.30;;;16.70;99.90;;;;;;5097437;28;20466;-43
2022/07/01 00:04:26;;;;;;;2.80;1.30;;;16.70;99.90;;;;;;5097430;28;20455;-44
2022/07/01 00:06:55;;;;;;;1.70;1.13;;;16.60;99.90;;;;;;5096777;28;20241;-46
2022/07/01 00:09:22;;;;;;;3.93;1.47;;;16.60;99.90;;;;;;5096589;28;20560;-46
2022/07/01 00:11:48;;;;;;;1.93;1.03;;;16.40;99.90;;;;;;5096598;28;20831;-43
2022/07/01 00:14:14;;;;;;;1.60;0.97;;;16.20;99.90;;;;;;5096756;28;20528;-42
2022/07/01 00:16:40;;;;;;;2.63;0.90;;;16.10;99.90;;;;;;5096773;28;20453;-44
2022/07/01 00:19:05;;;;;;;1.30;0.87;;;16.10;99.90;;;;;;5097643;28;20431;-46
2022/07/01 00:21:32;;;;;;;3.73;0.97;;;16.00;99.90;;;;;;5096643;28;20203;-44
2022/07/01 00:23:57;;;;;;;1.93;1.10;;;15.90;99.90;;;;;;5096816;28;20166;-44
2022/07/01 00:26:23;;;;;;;1.80;0.87;;;15.70;99.90;;;;;;5096615;28;20406;-43
2022/07/01 00:28:49;;;;;;;2.23;1.20;;;15.60;99.90;;;;;;5095648;28;20257;-43
2022/07/01 00:31:14;;;;;;;1.30;0.77;;;15.60;99.90;;;;;;5054628;28;1147590;-41
2022/07/01 00:33:40;;;;;;;1.20;0.80;;;15.60;99.90;;;;;;5097028;28;20185;-42
2022/07/01 00:36:05;;;;;;;1.40;1.00;;;15.70;99.90;;;;;;5096429;28;20185;-43
2022/07/01 00:38:31;;;;;;;1.90;0.90;;;15.80;99.90;;;;;;5096602;28;20183;-42
2022/07/01 00:40:57;;;;;;;3.97;1.10;;;15.90;99.90;;;;;;5097034;28;20200;-44
2022/07/01 00:43:24;;;;;;;1.20;0.93;;;16.00;99.90;;;;;;5097136;28;20582;-46
2022/07/01 00:45:51;;;;;;;3.20;1.03;;;16.10;99.90;;;;;;5097101;28;20214;-42
2022/07/01 00:48:17;;;;;;;3.73;1.23;;;16.20;99.90;;;;;;5097382;28;20434;-43
2022/07/01 00:50:43;;;;;;;2.83;1.10;;;16.20;99.90;;;;;;5096018;28;20420;-43
2022/07/01 00:53:09;;;;;;;1.27;0.90;;;16.30;99.90;;;;;;5096183;28;20418;-43
2022/07/01 00:55:35;;;;;;;1.83;0.90;;;16.30;99.90;;;;;;5097667;28;20421;-43
2022/07/01 00:58:00;;;;;;;1.30;0.90;;;16.30;99.90;;;;;;5096681;28;20633;-46
2022/07/01 01:00:26;;;;;;;1.97;1.23;;;16.30;99.90;;;;;;5096366;28;20177;-45
2022/07/01 01:02:52;;;;;;;2.10;0.90;;;16.20;99.90;;;;;;5095465;28;20179;-42
2022/07/01 01:05:20;;;;;;;1.30;0.70;;;16.20;99.90;;;;;;5095312;28;20189;-43
2022/07/01 01:07:46;;;;;;;1.40;0.90;;;16.30;99.90;;;;;;5096518;28;20422;-43
2022/07/01 01:10:13;;;;;;;2.50;0.83;;;16.30;99.90;;;;;;5094932;28;20506;-42
2022/07/01 01:12:38;;;;;;;1.20;0.80;;;16.30;99.90;;;;;;5095173;28;20411;-41
2022/07/01 01:15:05;;;;;;;1.73;0.70;;;16.30;99.90;;;;;;5095293;28;20434;-44
2022/07/01 01:17:30;;;;;;;1.20;0.80;;;16.30;99.90;;;;;;5096692;28;20178;-43
2022/07/01 01:19:56;;;;;;;1.20;0.73;;;16.30;99.90;;;;;;5097207;28;20424;-44
2022/07/01 01:22:22;;;;;;;1.00;0.67;;;16.20;99.90;;;;;;5096904;28;20256;-46
2022/07/01 01:24:48;;;;;;;2.70;0.90;;;16.20;99.90;;;;;;5097185;28;20189;-44
2022/07/01 01:27:16;;;;;;;1.20;0.77;;;16.20;99.90;;;;;;5096635;28;20481;-43
2022/07/01 01:29:42;;;;;;;1.47;0.83;;;16.20;99.90;;;;;;5099098;28;20893;-45
2022/07/01 01:32:08;;;;;;;1.23;0.80;;;16.10;99.90;;;;;;5100199;28;20490;-44
2022/07/01 01:34:36;;;;;;;1.07;0.80;;;16.10;99.90;;;;;;5100511;28;20768;-42
2022/07/01 01:37:02;;;;;;;2.13;1.10;;;16.00;99.90;;;;;;5100364;28;20527;-43
2022/07/01 01:39:28;;;;;;;2.33;1.10;;;15.90;99.90;;;;;;5100312;28;20438;-42
2022/07/01 01:41:54;;;;;;;1.10;0.60;;;15.80;99.90;;;;;;5100571;28;20711;-42
2022/07/01 01:44:19;;;;;;;1.83;0.80;;;15.80;99.90;;;;;;5100430;28;20177;-44
2022/07/01 01:46:45;;;;;;;1.03;0.70;;;15.70;99.90;;;;;;5099484;28;20181;-47
2022/07/01 01:49:10;;;;;;;2.30;1.30;;;15.60;99.90;;;;;;5099312;28;20759;-44
2022/07/01 01:51:36;;;;;;;1.10;0.70;;;15.60;99.90;;;;;;5100439;28;20639;-43
2022/07/01 01:54:02;;;;;;;2.13;0.70;;;15.60;99.90;;;;;;5100021;28;20177;-42
2022/07/01 01:56:29;;;;;;;2.03;0.97;;;15.50;99.90;;;;;;5099272;28;20174;-44
2022/07/01 01:58:55;;;;;;;3.33;0.90;;;15.50;99.90;;;;;;5100336;28;20181;-43
2022/07/01 02:01:20;;;;;;;2.47;0.80;;;15.40;99.90;;;;;;5100398;28;20590;-43
2022/07/01 02:03:47;;;;;;;3.03;1.27;;;15.40;99.90;;;;;;5099290;28;20241;-43
2022/07/01 02:06:14;;;;;;;1.33;1.10;;;15.40;99.90;;;;;;5099058;28;20270;-42
2022/07/01 02:08:40;;;;;;;1.10;0.70;;;15.40;99.90;;;;;;5099265;28;20489;-43
2022/07/01 02:11:07;;;;;;;1.17;0.90;;;15.30;99.90;;;;;;5099145;28;20833;-47
2022/07/01 02:13:33;;;;;;;2.10;1.00;;;15.30;99.90;;;;;;5099344;28;20177;-47
2022/07/01 02:15:59;;;;;;;1.67;0.83;;;15.20;99.90;;;;;;5098833;28;20694;-44
2022/07/01 02:18:32;;;;;;;1.60;1.20;;;15.20;99.90;;;;;;5097190;28;20420;-43
2022/07/01 02:20:58;;;;;;;1.80;0.97;;;15.20;99.90;;;;;;5097906;28;20510;-43
2022/07/01 02:23:24;;;;;;;1.77;1.00;;;15.10;99.90;;;;;;5097539;28;20430;-43
2022/07/01 02:25:50;;;;;;;2.00;1.00;;;15.10;99.90;;;;;;5097585;28;20435;-42
2022/07/01 02:28:16;;;;;;;1.80;0.93;;;15.00;99.90;;;;;;5097295;28;20185;-42
2022/07/01 02:30:42;;;;;;;2.80;1.20;;;15.10;99.90;;;;;;5097835;28;20177;-43
2022/07/01 02:33:08;;;;;;;2.30;1.40;;;15.00;99.90;;;;;;5099268;28;20559;-43
2022/07/01 02:35:35;;;;;;;1.70;1.30;;;15.00;99.90;;;;;;5098948;28;20723;-41
2022/07/01 02:38:02;;;;;;;1.90;1.43;;;14.80;99.90;;;;;;5098938;28;20769;-42
2022/07/01 02:40:28;;;;;;;2.07;1.27;;;14.50;99.90;;;;;;5097935;28;20443;-42
2022/07/01 02:42:53;;;;;;;1.43;1.27;;;14.40;99.90;;;;;;5098207;28;20462;-43
2022/07/01 02:45:19;;;;;;;2.07;1.87;;;14.40;99.90;;;;;;5096933;28;20420;-42
2022/07/01 02:47:45;;;;;;;1.40;1.20;;;14.30;99.90;;;;;;5098687;28;20593;-44
2022/07/01 02:50:11;;;;;;;1.70;1.60;;;14.20;99.90;;;;;;5098006;28;20223;-43
2022/07/01 02:52:38;;;;;;;1.83;1.63;;;14.30;99.90;;;;;;5098242;28;20170;-43
2022/07/01 02:55:06;;;;;;;1.57;1.47;;;14.20;99.90;;;;;;5098018;28;20415;-42
2022/07/01 02:57:31;;;;;;;2.03;1.50;;;14.20;99.90;;;;;;5098433;28;20464;-43
2022/07/01 02:59:57;;;;;;;2.90;1.70;;;14.20;99.90;;;;;;5098521;28;20447;-43
2022/07/01 03:02:23;;;;;;;1.73;1.63;;;14.20;99.90;;;;;;5098117;28;20173;-42
2022/07/01 03:04:50;;;;;;;2.73;2.20;;;14.20;99.90;;;;;;5099137;28;20188;-42
2022/07/01 03:07:16;;;;;;;2.47;1.70;;;14.20;99.90;;;;;;5098165;28;20174;-42
2022/07/01 03:09:43;;;;;;;2.77;1.80;;;14.20;99.90;;;;;;5098194;28;20464;-42
2022/07/01 03:12:24;;;;;;;3.97;2.10;;;14.10;99.90;;;;;;5096261;28;20415;-43
2022/07/01 03:14:59;;;;;;;2.23;1.90;;;14.20;99.90;;;;;;5097224;28;20415;-43
2022/07/01 03:17:26;;;;;;;3.33;1.60;;;14.20;99.90;;;;;;5097972;28;20458;-43
2022/07/01 03:19:52;;;;;;;2.10;1.67;;;14.20;99.90;;;;;;5097856;28;20443;-43
2022/07/01 03:22:20;;;;;;;2.87;1.83;;;14.20;99.90;;;;;;5096320;28;20431;-41
2022/07/01 03:24:46;;;;;;;4.80;1.87;;;14.10;99.90;;;;;;5097089;28;20415;-41
2022/07/01 03:27:12;;;;;;;2.40;1.83;;;14.20;99.90;;;;;;5096805;28;20431;-44
2022/07/01 03:29:38;;;;;;;2.40;1.80;;;14.30;99.90;;;;;;5097435;28;20474;-44
2022/07/01 03:32:03;;;;;;;2.47;1.60;;;14.20;99.90;;;;;;5097353;28;20244;-42
2022/07/01 03:34:29;;;;;;;2.43;1.70;;;14.20;99.90;;;;;;5096701;28;20184;-44
2022/07/01 03:36:55;;;;;;;2.40;1.73;;;14.20;99.90;;;;;;5096815;28;20233;-46
2022/07/01 03:39:20;;;;;;;2.50;1.60;;;14.20;99.90;;;;;;5095313;28;20649;-46
2022/07/01 03:41:46;;;;;;;1.83;1.40;;;14.20;99.90;;;;;;5095276;28;20185;-42
2022/07/01 03:44:12;;;;;;;1.50;1.33;;;14.20;99.90;;;;;;5095122;28;20601;-44
2022/07/01 03:46:38;;;;;;;3.87;1.67;;;14.30;99.90;;;;;;5094951;28;20267;-44
2022/07/01 03:49:08;;;;;;;1.40;1.00;;;14.30;99.90;;;;;;5095854;28;20627;-44
2022/07/01 03:51:34;;;;;;;1.30;0.90;;;14.30;99.90;;;;;;5095238;28;20263;-45
2022/07/01 03:56:44;;;;;;;1.50;1.10;;;14.10;99.90;;;;;;5096594;28;20448;-42
2022/07/01 03:59:09;;;;;;;1.40;1.10;;;14.10;99.90;;;;;;5095507;28;20454;-42
2022/07/01 04:01:35;;;;;;;2.00;0.93;;;14.10;99.90;;;;;;5095948;28;20184;-41
2022/07/01 04:04:01;;;;;;;1.33;1.00;;;14.10;99.90;;;;;;5095136;28;20168;-42
2022/07/01 04:06:26;;;;;;;1.47;1.37;;;14.20;99.90;;;;;;5094616;28;20185;-48
2022/07/01 04:08:52;;;;;;;1.40;1.00;;;14.20;99.90;;;;;;5094490;28;20205;-42
2022/07/01 04:11:18;;;;;;;1.00;0.67;;;14.30;99.90;;;;;;5095839;28;20178;-45
2022/07/01 04:13:49;;;;;;;1.70;0.90;;;14.10;99.90;;;;;;5099392;28;20415;-41
2022/07/01 04:16:18;;;;;;;1.20;0.97;;;14.10;99.90;;;;;;5097584;28;20209;-42
2022/07/01 04:18:44;;;;;;;1.60;0.97;;;14.20;99.90;;;;;;5096982;28;20701;-44
2022/07/01 04:23:56;;;;;;;1.23;1.03;;;14.10;99.90;;;;;;5093979;28;20422;-44
2022/07/01 04:26:25;;;;;;;1.50;0.90;;;14.10;99.90;;;;;;5094498;28;20438;-42
2022/07/01 04:28:52;;;;;;;1.70;0.90;;;14.20;99.90;;;;;;5091953;28;20467;-43
2022/07/01 04:31:18;;;;;;;1.40;1.13;;;14.20;99.90;;;;;;5094227;28;20494;-44
2022/07/01 04:33:45;;;;;;;1.87;1.00;;;14.20;99.90;;;;;;5092682;28;20423;-45
2022/07/01 04:36:10;;;;;;;1.40;0.93;;;14.30;99.90;;;;;;5093818;28;20415;-45
2022/07/01 04:38:36;;;;;;;1.00;0.70;;;14.40;99.90;;;;;;5093380;28;20434;-44
2022/07/01 04:43:46;;;;;;;1.40;0.70;;;14.60;99.90;;;;;;5095576;28;20184;-44
2022/07/01 04:46:12;;;;;;;3.67;0.80;;;14.70;99.90;;;;;;5092738;28;20426;-45
2022/07/01 04:48:37;;;;;;;1.37;0.60;;;14.80;99.90;;;;;;5093568;28;20354;-44
2022/07/01 04:51:03;;;;;;;1.60;0.80;;;14.90;99.90;;;;;;5092777;28;20272;-43
2022/07/01 04:53:29;;;;;;;1.60;0.90;;;14.90;99.90;;;;;;5094101;28;20173;-44
2022/07/01 04:55:54;;;;;;;2.30;1.20;;;14.90;99.90;;;;;;5091541;28;20726;-45
2022/07/01 04:58:20;;;;;;;1.73;0.83;;;15.00;99.90;;;;;;5090813;28;20418;-46
2022/07/01 05:00:48;;;;;;;2.10;1.10;;;15.00;99.90;;;;;;5093083;28;20551;-44
2022/07/01 05:03:14;;;;;;;1.27;0.90;;;15.00;99.90;;;;;;5094495;28;20696;-45
2022/07/01 05:05:40;;;;;;;1.77;0.80;;;15.20;99.90;;;;;;5095496;28;21568;-43
2022/07/01 05:08:05;;;;;;;1.53;1.03;;;15.40;99.90;;;;;;5093801;28;21006;-44
2022/07/01 05:10:31;;;;;;;2.10;0.80;;;15.50;99.90;;;;;;5094171;28;20193;-44
2022/07/01 05:12:56;;;;;;;2.00;1.10;;;15.60;99.90;;;;;;5094636;28;20319;-48
2022/07/01 05:15:22;;;;;;;1.70;0.90;;;15.60;99.90;;;;;;5095093;28;20253;-46
2022/07/01 05:23:16;;;;;;;2.50;1.03;;;15.30;99.90;;;;;;5096939;28;20471;-43
2022/07/01 05:25:41;;;;;;;2.00;0.97;;;15.30;99.90;;;;;;5097076;28;20442;-45
2022/07/01 05:28:07;;;;;;;1.50;0.87;;;15.30;99.90;;;;;;5094211;28;20181;-44
2022/07/01 05:30:33;;;;;;;2.63;0.90;;;15.30;99.90;;;;;;5094534;28;20205;-47
2022/07/01 05:32:58;;;;;;;1.80;0.97;;;15.20;99.90;;;;;;5096355;28;20228;-46
2022/07/01 05:35:24;;;;;;;1.97;0.70;;;15.20;99.90;;;;;;5098433;28;20485;-43
2022/07/01 05:37:50;;;;;;;1.40;0.80;;;15.10;99.90;;;;;;5097385;28;20567;-43
2022/07/01 05:40:15;;;;;;;1.70;0.80;;;15.10;99.90;;;;;;5096010;28;20437;-44
2022/07/01 05:42:41;;;;;;;1.30;0.70;;;15.10;99.90;;;;;;5092966;28;20189;-43
2022/07/01 05:45:07;;;;;;;1.37;0.80;;;15.10;99.90;;;;;;5096454;28;20318;-45
2022/07/01 05:47:32;;;;;;;1.10;0.63;;;15.20;99.90;;;;;;5094634;28;20569;-47
2022/07/01 05:49:58;;;;;;;1.93;0.70;;;15.30;99.90;;;;;;5092391;28;20494;-47
2022/07/01 05:52:24;;;;;;;1.80;0.70;;;15.20;99.90;;;;;;5094826;28;20182;-45
2022/07/01 05:54:49;;;;;;;1.50;0.87;;;15.20;99.90;;;;;;5094129;28;20516;-44
2022/07/01 05:57:15;;;;;;;1.67;0.97;;;14.90;99.90;;;;;;5096883;28;20459;-47
2022/07/01 05:59:41;;;;;;;1.20;0.70;;;15.00;99.90;;;;;;5095608;28;20334;-44
2022/07/01 06:02:07;;;;;;;2.70;0.80;;;15.10;99.90;;;;;;5094071;28;20185;-47
2022/07/01 06:04:33;;;;;;;3.10;0.90;;;15.20;99.90;;;;;;5091556;28;20415;-44
2022/07/01 06:06:59;;;;;;;1.27;0.70;;;15.10;99.90;;;;;;5090611;28;20313;-44
2022/07/01 06:09:26;;;;;;;1.40;0.83;;;15.20;99.90;;;;;;5092958;28;20915;-45
2022/07/01 06:11:53;;;;;;;1.40;0.77;;;15.20;99.90;;;;;;5093630;28;20169;-45
2022/07/01 06:14:19;;;;;;;1.93;0.80;;;15.20;99.90;;;;;;5094942;28;20510;-43
2022/07/01 06:16:45;;;;;;;2.20;0.90;;;15.20;99.90;;;;;;5092641;28;20529;-44
2022/07/01 06:19:12;;;;;;;1.57;1.00;;;15.20;99.90;;;;;;5090956;28;20173;-44
2022/07/01 06:21:38;;;;;;;2.40;1.07;;;15.30;99.90;;;;;;5092356;28;20465;-45
2022/07/01 06:24:05;;;;;;;1.63;0.90;;;15.40;99.90;;;;;;5091798;28;20901;-44
2022/07/01 06:26:30;;;;;;;1.80;0.90;;;15.50;99.90;;;;;;5095103;28;20422;-44
2022/07/01 06:28:56;;;;;;;1.23;0.93;;;15.50;99.90;;;;;;5095659;28;20919;-43
2022/07/01 06:31:23;;;;;;;2.23;1.40;;;15.60;99.90;;;;;;5095071;28;20216;-44
2022/07/01 06:33:49;;;;;;;2.03;1.00;;;15.50;99.90;;;;;;5095483;28;20173;-44
2022/07/01 06:36:16;;;;;;;1.00;0.67;;;15.30;99.90;;;;;;5097872;28;20421;-43
2022/07/01 06:38:41;;;;;;;2.67;1.00;;;15.20;99.90;;;;;;5096450;28;20420;-47
2022/07/01 06:43:52;;;;;;;2.07;0.77;;;15.00;99.90;;;;;;5095243;28;20573;-46
2022/07/01 06:46:17;;;;;;;2.43;0.97;;;15.00;99.90;;;;;;5097147;28;20522;-42
2022/07/01 06:48:43;;;;;;;1.40;0.70;;;15.00;99.90;;;;;;5095970;28;20506;-47
2022/07/01 06:51:08;;;;;;;2.27;0.60;;;14.80;99.90;;;;;;5096418;28;20213;-45
2022/07/01 06:53:34;;;;;;;2.37;0.77;;;14.70;99.90;;;;;;5095471;28;20192;-46
2022/07/01 06:56:00;;;;;;;3.97;0.80;;;14.70;99.90;;;;;;5095418;28;20169;-45
2022/07/01 06:58:25;;;;;;;2.93;0.80;;;14.80;99.90;;;;;;5096282;28;20207;-43
2022/07/01 07:00:51;;;;;;;1.13;0.70;;;15.00;99.90;;;;;;5093609;28;20200;-42
2022/07/01 07:03:16;;;;;;;2.03;1.00;;;15.20;99.90;;;;;;5095131;28;20582;-45
2022/07/01 07:05:42;;;;;;;1.30;0.93;;;15.30;99.90;;;;;;5093345;28;20183;-45
2022/07/01 07:08:08;;;;;;;1.77;0.70;;;15.30;99.90;;;;;;5092323;28;20180;-47
2022/07/01 07:10:33;;;;;;;2.30;0.80;;;15.30;99.90;;;;;;5090765;28;20494;-43
2022/07/01 07:12:59;;;;;;;2.00;0.80;;;15.30;99.90;;;;;;5091195;28;20204;-44
2022/07/01 07:15:25;;;;;;;3.30;0.83;;;15.20;99.90;;;;;;5091879;28;20169;-46
2022/07/01 07:17:50;;;;;;;1.50;0.80;;;15.20;99.90;;;;;;5092761;28;20370;-48
2022/07/01 07:20:17;;;;;;;1.40;0.90;;;15.20;99.90;;;;;;5094146;28;20181;-44
2022/07/01 07:22:42;;;;;;;0.97;0.57;;;15.10;99.90;;;;;;5094597;28;20276;-46
2022/07/01 07:25:08;;;;;;;1.50;0.77;;;15.10;99.90;;;;;;5092556;28;20514;-45
2022/07/01 07:27:34;;;;;;;2.20;0.73;;;15.30;99.90;;;;;;5094010;28;20177;-46
2022/07/01 07:30:00;;;;;;;1.70;0.70;;;15.30;99.90;;;;;;5095102;28;20215;-45
2022/07/01 07:32:25;;;;;;;1.10;0.80;;;15.40;99.90;;;;;;5094009;28;20228;-45
2022/07/01 07:34:51;;;;;;;1.50;0.80;;;15.50;99.90;;;;;;5093749;28;20452;-45
2022/07/01 07:37:16;;;;;;;2.10;0.77;;;15.50;99.90;;;;;;5094774;28;20693;-45
2022/07/01 07:39:43;;;;;;;1.10;0.70;;;15.50;99.90;;;;;;5093675;28;20192;-45
2022/07/01 07:42:09;;;;;;;3.60;0.87;;;15.40;99.90;;;;;;5093807;28;20455;-46
2022/07/01 07:44:35;;;;;;;3.10;0.90;;;15.40;99.90;;;;;;5092521;28;20426;-44
2022/07/01 07:47:01;;;;;;;1.67;0.90;;;15.50;99.90;;;;;;5091102;28;20423;-44
2022/07/01 07:49:27;;;;;;;1.27;0.60;;;15.60;99.90;;;;;;5090917;28;20571;-44
2022/07/01 07:51:53;;;;;;;1.07;0.63;;;15.70;99.90;;;;;;5089918;28;20265;-43
2022/07/01 07:54:18;;;;;;;2.20;0.90;;;15.80;99.90;;;;;;5089341;28;20502;-46
2022/07/01 07:56:44;;;;;;;2.83;0.70;;;15.90;99.90;;;;;;5086735;28;20182;-43
2022/07/01 07:59:10;;;;;;;1.50;0.80;;;16.00;99.90;;;;;;5088310;28;20191;-45
2022/07/01 08:01:35;;;;;;;1.37;0.77;;;16.10;99.90;;;;;;5087464;28;20514;-43
2022/07/01 08:04:01;;;;;;;2.23;0.90;;;16.10;99.90;;;;;;5090252;28;20171;-44
2022/07/01 08:06:30;;;;;;;2.00;0.83;;;16.20;99.90;;;;;;5091809;28;20269;-44
2022/07/01 08:08:57;;;;;;;1.70;1.30;;;16.20;99.90;;;;;;5093107;28;20211;-44
2022/07/01 08:11:22;;;;;;;2.87;1.10;;;16.40;99.90;;;;;;5093239;28;20453;-45
2022/07/01 08:17:33;;;;;;;1.23;0.80;;;16.60;99.90;;;;;;5097977;28;20234;-44
2022/07/01 08:19:59;;;;;;;1.40;0.80;;;16.70;99.90;;;;;;5093061;28;20423;-47
2022/07/01 08:22:25;;;;;;;1.77;0.90;;;16.70;99.10;;;;;;5092487;28;20422;-45
2022/07/01 08:24:51;;;;;;;2.00;0.70;;;16.70;99.20;;;;;;5092055;28;20326;-44
2022/07/01 08:27:16;;;;;;;1.37;0.60;;;16.60;99.80;;;;;;5092679;28;20267;-44
2022/07/01 08:29:42;;;;;;;1.50;0.87;;;16.60;98.80;;;;;;5092469;28;20366;-44
2022/07/01 08:32:08;;;;;;;1.60;0.70;;;16.50;99.10;;;;;;5091655;28;20316;-44
2022/07/01 08:34:35;;;;;;;1.30;0.60;;;16.40;98.90;;;;;;5093527;28;20422;-43
2022/07/01 08:37:02;;;;;;;1.00;0.47;;;16.30;99.10;;;;;;5093916;28;20874;-44
2022/07/01 08:39:28;;;;;;;1.20;0.60;;;16.10;98.40;;;;;;5095409;28;20430;-44
2022/07/01 08:41:55;;;;;;;1.37;0.60;;;16.00;99.30;;;;;;5096578;28;20471;-44
2022/07/01 08:44:20;;;;;;;1.10;0.70;;;16.00;99.90;;;;;;5097378;28;20177;-44
2022/07/01 08:46:46;;;;;;;2.30;0.80;;;16.00;99.90;;;;;;5099622;28;20782;-42
2022/07/01 08:49:13;;;;;;;1.90;0.77;;;15.90;99.90;;;;;;5099562;28;20570;-45
2022/07/01 08:51:39;;;;;;;1.20;0.87;;;15.60;99.90;;;;;;5099616;28;20192;-45
2022/07/01 08:54:04;;;;;;;1.10;0.60;;;15.50;99.90;;;;;;5099095;28;20415;-44
2022/07/01 08:56:42;;;;;;;1.33;0.90;;;15.40;99.90;;;;;;5098677;28;20395;-45
2022/07/01 08:59:12;;;;;;;1.50;1.07;;;15.30;99.90;;;;;;5097631;28;20273;-44
2022/07/01 09:01:39;;;;;;;1.87;1.17;;;15.20;99.90;;;;;;5096702;28;20425;-46
2022/07/01 09:04:17;;;;;;;3.17;1.10;;;15.10;99.90;;;;;;5094721;28;20422;-44
2022/07/01 09:06:44;;;;;;;1.83;1.10;;;15.10;99.90;;;;;;5097603;28;20422;-44
2022/07/01 09:09:20;;;;;;;2.67;1.00;;;15.10;99.90;;;;;;5095636;28;20891;-44
2022/07/01 09:11:54;;;;;;;1.50;1.00;;;15.20;99.90;;;;;;5098102;28;20565;-44
2022/07/01 09:14:27;;;;;;;1.60;1.20;;;15.40;99.90;;;;;;5098786;28;20407;-43
2022/07/01 09:16:59;;;;;;;4.47;1.10;;;15.60;99.90;;;;;;5099074;28;20572;-49
2022/07/01 09:19:26;;;;;;;1.93;1.00;;;15.70;99.90;;;;;;5098511;28;20426;-45
2022/07/01 09:21:58;;;;;;;1.97;1.20;;;15.80;99.90;;;;;;5097554;28;20415;-46
2022/07/01 09:24:37;;;;;;;2.20;1.40;;;15.80;99.90;;;;;;5097255;28;20417;-46
2022/07/01 09:27:11;;;;;;;1.47;1.17;;;15.70;99.90;;;;;;5096304;28;20522;-46
2022/07/01 09:29:39;;;;;;;1.70;1.10;;;15.70;99.90;;;;;;5098319;28;20495;-45
2022/07/01 09:32:10;;;;;;;1.30;1.17;;;15.70;99.90;;;;;;5098585;28;20463;-45
2022/07/01 09:34:41;;;;;;;1.77;0.90;;;15.70;99.90;;;;;;5096853;28;20423;-45
2022/07/01 09:37:07;;;;;;;1.60;1.10;;;15.80;99.90;;;;;;5098054;28;20658;-45
2022/07/01 09:39:43;;;;;;;1.10;0.80;;;15.80;99.90;;;;;;5095983;28;20465;-45
2022/07/01 09:42:09;;;;;;;1.90;1.20;;;15.70;99.90;;;;;;5095305;28;20418;-46
2022/07/01 09:44:35;;;;;;;2.00;1.20;;;15.70;99.90;;;;;;5095764;28;20420;-44
2022/07/01 09:47:01;;;;;;;1.20;0.90;;;15.50;99.90;;;;;;5090499;28;20287;-46
2022/07/01 09:49:27;;;;;;;2.30;1.00;;;15.50;99.90;;;;;;5094410;28;20227;-47
2022/07/01 09:51:53;;;;;;;1.80;1.07;;;15.40;99.90;;;;;;5097185;28;20453;-44
2022/07/01 09:54:20;;;;;;;1.93;1.13;;;15.30;99.90;;;;;;5096661;28;20473;-45
2022/07/01 09:56:46;;;;;;;1.20;1.00;;;15.40;99.90;;;;;;5096156;28;20257;-45
2022/07/01 09:59:12;;;;;;;1.60;0.93;;;15.40;99.90;;;;;;5095765;28;20430;-45
2022/07/01 10:01:41;;;;;;;1.67;1.10;;;15.50;99.90;;;;;;5095573;28;20250;-45
2022/07/01 10:04:08;;;;;;;1.40;1.30;;;15.60;99.90;;;;;;5092707;28;20189;-45
2022/07/01 10:06:46;;;;;;;1.40;1.10;;;15.60;99.90;;;;;;5095901;28;20903;-45
2022/07/01 10:09:31;;;;;;;1.73;0.93;;;15.60;99.90;;;;;;5091332;28;20473;-44
2022/07/01 10:12:09;;;;;;;2.13;1.10;;;15.60;99.90;;;;;;5094179;28;20446;-51
2022/07/01 10:14:38;;;;;;;1.73;1.30;;;15.70;99.90;;;;;;5093161;28;20403;-48
2022/07/01 10:17:04;;;;;;;2.17;1.10;;;15.80;99.90;;;;;;5093233;28;20406;-46
2022/07/01 10:19:30;;;;;;;1.97;1.73;;;15.80;99.90;;;;;;5092293;28;20414;-44
2022/07/01 10:22:18;;;;;;;1.40;1.20;;;15.90;99.90;;;;;;5092087;28;20681;-47
2022/07/01 10:24:43;;;;;;;1.57;1.33;;;15.90;99.90;;;;;;5092611;28;20484;-45
2022/07/01 10:27:20;;;;;;;1.63;1.43;;;16.10;99.90;;;;;;5087185;28;20739;-46
2022/07/01 10:29:46;;;;;;;1.53;1.10;;;16.20;99.90;;;;;;5095300;28;20450;-45
2022/07/01 10:32:21;;;;;;;1.40;1.20;;;16.20;99.90;;;;;;5093625;28;20561;-47
2022/07/01 10:34:48;;;;;;;2.30;1.37;;;16.20;99.90;;;;;;5093747;28;20168;-45
2022/07/01 10:37:14;;;;;;;1.90;1.20;;;16.40;99.90;;;;;;5095160;28;20417;-46
2022/07/01 10:39:57;;;;;;;1.50;1.30;;;16.60;99.90;;;;;;5094073;28;20475;-49
2022/07/01 10:42:28;;;;;;;1.30;1.00;;;16.80;98.20;;;;;;5094876;28;20746;-45
2022/07/01 10:45:19;;;;;;;1.73;1.20;;;16.70;97.00;;;;;;5095082;28;20848;-44
2022/07/01 10:47:45;;;;;;;1.27;0.90;;;17.00;97.90;;;;;;5090221;28;20895;-47
2022/07/01 10:50:12;;;;;;;2.70;1.10;;;17.50;98.80;;;;;;5093105;28;20470;-46
2022/07/01 10:52:39;;;;;;;1.50;1.10;;;17.80;95.90;;;;;;5093240;28;20463;-46
2022/07/01 10:55:07;;;;;;;2.50;1.30;;;18.10;95.30;;;;;;5094743;28;20786;-47
2022/07/01 10:57:40;;;;;;;2.03;1.10;;;18.50;94.70;;;;;;5092840;28;20407;-46
2022/07/01 11:00:06;;;;;;;1.43;1.33;;;18.70;93.90;;;;;;5093735;28;20419;-44
2022/07/01 11:02:35;;;;;;;1.40;1.03;;;18.90;93.80;;;;;;5091878;28;20486;-43
2022/07/01 11:05:07;;;;;;;1.97;1.10;;;19.20;94.30;;;;;;5091757;28;20212;-45
2022/07/01 11:07:35;;;;;;;3.73;1.20;;;19.40;94.50;;;;;;5094026;28;20576;-45
2022/07/01 11:10:02;;;;;;;3.20;1.53;;;19.50;93.00;;;;;;5093624;28;20518;-43
2022/07/01 11:12:29;;;;;;;1.30;1.00;;;19.50;92.10;;;;;;5091872;28;20415;-45
2022/07/01 11:14:57;;;;;;;1.57;1.10;;;19.60;92.20;;;;;;5094132;28;20417;-45
2022/07/01 11:17:23;;;;;;;2.50;1.37;;;19.70;92.30;;;;;;5093096;28;20415;-43
2022/07/01 11:19:56;;;;;;;1.50;1.20;;;19.80;91.90;;;;;;5093541;28;20825;-45
2022/07/01 11:22:27;;;;;;;1.63;1.07;;;19.80;91.60;;;;;;5095297;28;20185;-46
2022/07/01 11:25:07;;;;;;;2.77;1.27;;;19.80;91.80;;;;;;5093851;28;20585;-45
2022/07/01 11:27:33;;;;;;;1.60;1.17;;;19.80;91.70;;;;;;5093488;28;20431;-46
2022/07/01 11:30:04;;;;;;;2.53;1.40;;;19.60;91.90;;;;;;5093144;28;20552;-45
2022/07/01 11:32:35;;;;;;;1.70;1.23;;;19.40;92.50;;;;;;5124351;27;20815;-45
2022/07/01 11:35:03;;;;;;;2.43;1.40;;;19.30;93.30;;;;;;5089841;28;20857;-45
2022/07/01 11:40:17;;;;;;;4.87;1.20;;;18.90;94.60;;;;;;5091529;28;20426;-44
2022/07/01 11:42:43;;;;;;;1.43;1.20;;;18.80;95.00;;;;;;5092032;28;20509;-43
2022/07/01 11:45:10;;;;;;;1.73;1.30;;;18.80;95.80;;;;;;5091691;28;20447;-44
2022/07/01 11:47:35;;;;;;;2.20;1.40;;;18.80;95.80;;;;;;5088847;28;20427;-43
2022/07/01 11:50:01;;;;;;;1.97;1.30;;;18.90;95.40;;;;;;5083786;28;21045;-44
2022/07/01 11:52:27;;;;;;;2.17;1.50;;;19.00;93.70;;;;;;5070460;28;20180;-44
2022/07/01 11:54:55;;;;;;;1.67;1.30;;;19.00;92.90;;;;;;5070963;28;20178;-45
2022/07/01 11:57:22;;;;;;;1.87;1.77;;;19.10;92.90;;;;;;5068676;28;20417;-43
2022/07/01 11:59:50;;;;;;;1.30;1.20;;;19.40;93.20;;;;;;5070062;28;20434;-46
2022/07/01 12:02:18;;;;;;;1.93;1.43;;;19.70;92.00;;;;;;5072159;28;20900;-43
2022/07/01 12:04:44;;;;;;;2.13;1.70;;;19.80;90.60;;;;;;5071541;28;20646;-48
2022/07/01 12:07:11;;;;;;;1.93;1.67;;;19.90;90.60;;;;;;5071291;28;20416;-44
2022/07/01 12:09:37;;;;;;;3.60;1.60;;;20.00;90.10;;;;;;5069978;28;20482;-43
2022/07/01 12:12:04;;;;;;;1.47;1.20;;;20.20;90.40;;;;;;5072571;28;20547;-44
2022/07/01 12:14:32;;;;;;;2.60;1.20;;;20.30;88.60;;;;;;5071139;28;20416;-44
2022/07/01 12:17:01;;;;;;;2.63;1.60;;;20.20;87.00;;;;;;5069787;28;20462;-43
2022/07/01 12:19:40;;;;;;;1.77;1.30;;;20.20;90.30;;;;;;5071020;28;20444;-44
2022/07/01 12:22:09;;;;;;;2.13;1.43;;;20.30;89.30;;;;;;5071921;28;20412;-45
2022/07/01 12:24:35;;;;;;;2.70;1.63;;;20.50;88.00;;;;;;5072297;28;20468;-47
2022/07/01 12:27:05;;;;;;;1.83;1.10;;;20.50;86.90;;;;;;5073274;28;20486;-44
2022/07/01 12:29:45;;;;;;;2.80;1.60;;;20.20;87.20;;;;;;5071154;28;20475;-45
2022/07/01 12:32:14;;;;;;;2.50;1.60;;;20.00;88.70;;;;;;5072997;28;20510;-46
2022/07/01 12:34:49;;;;;;;2.20;1.67;;;20.00;88.30;;;;;;5073271;28;20432;-45
2022/07/01 12:37:19;;;;;;;1.30;1.07;;;19.80;88.30;;;;;;5073460;28;20885;-45
2022/07/01 12:39:44;;;;;;;2.37;1.40;;;19.30;87.00;;;;;;5072621;28;20428;-45
2022/07/01 12:42:23;;;;;;;2.07;1.10;;;19.20;89.00;;;;;;5070314;28;20416;-44
2022/07/01 12:44:51;;;;;;;1.97;1.10;;;19.10;90.10;;;;;;5071317;28;20179;-46
2022/07/01 12:47:30;;;;;;;3.10;1.40;;;19.50;88.10;;;;;;5086843;28;20427;-44
2022/07/01 12:50:20;;;;;;;2.47;1.10;;;19.90;89.60;;;;;;5073142;28;20505;-46
2022/07/01 12:53:11;;;;;;;1.83;1.30;;;20.80;90.10;;;;;;5072143;28;20424;-43
2022/07/01 12:55:42;;;;;;;2.43;1.30;;;21.60;86.60;;;;;;5073894;28;20777;-44
2022/07/01 12:58:11;;;;;;;1.73;1.17;;;22.10;86.50;;;;;;5073621;28;20520;-45
2022/07/01 13:00:38;;;;;;;1.37;1.23;;;22.30;80.70;;;;;;5073933;28;20494;-46
2022/07/01 13:03:05;;;;;;;1.30;1.00;;;22.30;81.20;;;;;;5075016;28;20521;-44
2022/07/01 13:05:33;;;;;;;2.40;1.20;;;22.30;80.90;;;;;;5076286;28;20873;-47
2022/07/01 13:07:59;;;;;;;1.93;1.30;;;22.00;83.00;;;;;;5075935;28;20425;-45
2022/07/01 13:10:24;;;;;;;2.60;1.27;;;21.70;80.80;;;;;;5074882;28;20474;-47
2022/07/01 13:12:51;;;;;;;1.40;1.00;;;21.50;82.60;;;;;;5071947;28;20183;-44